»·PEaware :: N8DL KAVQ-KBXK

N8DL :: KAVQ-KBXK

FLIGHT INFORMATION

Flight Status: Arrived
Operator: Privately registered:
United States
More flights under this callsign
Pilot: Dean L. (8400)
Aircraft: Unknown
(B60T)
More flights by this aircraft type
Origin: KAVQ Marana Northwest Regl
United States
Destination: KBXK Buckeye Mun
United States
More flights between these airports :: More routes between these airports
Route: +
File this flight plan on PilotEdge
Remarks:
Altitude:
(Current/Filed)
4,500ft
Speed:
(Current/Filed)
200kts
Departed: 04-Oct-20 02:13 PM
Arrived: 04-Oct-20 03:04 PM
Distance/Time
Traveled:
96nm/0:51
Distance/Time
To Go:
Arrived

Flight Plot

Page will automatically refresh every two minutes.

Flight plan parsing failed; only flown route is shown


Map Options




Map Legend


Flown Route
Filed Route
Departure Airport
Arrival Airport
Navaid (VOR, NDB)
Fix

Horizontal Profiles

Position Reports

Time Latitude Longitude Heading Altitude Ground
Speed
04-Oct-20 14:03 32.404970 -111.214556 224 2034ft 0kts
04-Oct-20 14:04 32.404968 -111.214559 224 2034ft 0kts
04-Oct-20 14:05 32.404965 -111.214563 224 2034ft 0kts
04-Oct-20 14:06 32.404962 -111.214566 224 2034ft 0kts
04-Oct-20 14:07 32.404959 -111.214570 224 2034ft 0kts
04-Oct-20 14:08 32.404956 -111.214573 224 2034ft 0kts
04-Oct-20 14:09 32.404953 -111.214577 224 2034ft 0kts
04-Oct-20 14:10 32.404950 -111.214580 224 2034ft 0kts
04-Oct-20 14:11 32.403883 -111.211459 39 2034ft 9kts
04-Oct-20 14:12 32.416375 -111.225229 313 2489ft 149kts
04-Oct-20 14:13 32.461645 -111.249055 0 3499ft 212kts
04-Oct-20 14:14 32.518342 -111.269734 333 3495ft 211kts
04-Oct-20 14:15 32.568669 -111.301194 333 3502ft 201kts
04-Oct-20 14:16 32.616481 -111.335475 325 3508ft 200kts
04-Oct-20 14:17 32.659960 -111.376448 318 3510ft 200kts
04-Oct-20 14:18 32.695555 -111.427584 309 3523ft 201kts
04-Oct-20 14:19 32.730149 -111.480134 309 3535ft 208kts
04-Oct-20 14:20 32.767342 -111.536518 309 3534ft 211kts
04-Oct-20 14:21 32.803154 -111.589805 312 3537ft 204kts
04-Oct-20 14:22 32.840140 -111.640488 312 3546ft 202kts
04-Oct-20 14:23 32.877180 -111.691061 312 3526ft 205kts
04-Oct-20 14:24 32.915915 -111.739944 321 3565ft 197kts
04-Oct-20 14:25 32.960173 -111.778098 337 3732ft 192kts
04-Oct-20 14:26 33.012802 -111.796243 348 3818ft 188kts
04-Oct-20 14:27 33.060795 -111.821182 332 3641ft 203kts
04-Oct-20 14:28 33.109543 -111.857797 327 3373ft 205kts
04-Oct-20 14:29 33.156356 -111.894546 328 3406ft 195kts
04-Oct-20 14:30 33.207254 -111.902139 21 3428ft 190kts
04-Oct-20 14:31 33.248022 -111.863434 46 3755ft 182kts
04-Oct-20 14:32 33.283486 -111.818672 41 3748ft 197kts
04-Oct-20 14:33 33.328600 -111.784396 22 4087ft 195kts
04-Oct-20 14:34 33.382816 -111.763725 16 3528ft 207kts
04-Oct-20 14:35 33.434489 -111.747520 11 4024ft 179kts
04-Oct-20 14:36 33.486536 -111.746728 343 3939ft 204kts
04-Oct-20 14:37 33.532740 -111.785866 325 3613ft 212kts
04-Oct-20 14:38 33.574310 -111.830456 309 3535ft 203kts
04-Oct-20 14:39 33.605964 -111.885819 303 3636ft 200kts
04-Oct-20 14:40 33.621140 -111.949490 269 3633ft 205kts
04-Oct-20 14:41 33.609835 -112.009930 247 4681ft 179kts
04-Oct-20 14:42 33.602996 -112.070016 279 5387ft 177kts
04-Oct-20 14:43 33.613152 -112.140189 285 4656ft 209kts
04-Oct-20 14:44 33.631214 -112.206129 292 4619ft 210kts
04-Oct-20 14:45 33.651635 -112.271578 293 4329ft 222kts
04-Oct-20 14:46 33.647201 -112.333011 173 4673ft 211kts
04-Oct-20 14:47 33.647313 -112.354957 250 3910ft 156kts
04-Oct-20 14:48 33.604675 -112.359781 131 5164ft 211kts
04-Oct-20 14:49 33.594214 -112.286337 77 4299ft 234kts
04-Oct-20 14:50 33.579124 -112.230233 170 4041ft 245kts
04-Oct-20 14:51 33.518956 -112.239275 223 4452ft 202kts
04-Oct-20 14:52 33.471798 -112.286351 230 4508ft 236kts
04-Oct-20 14:53 33.433075 -112.351069 234 4488ft 238kts
04-Oct-20 14:54 33.383483 -112.403011 214 4245ft 236kts
04-Oct-20 14:55 33.356956 -112.466681 273 4488ft 226kts
04-Oct-20 14:56 33.363033 -112.540336 277 4484ft 219kts
04-Oct-20 14:58 33.369805 -112.612997 278 4085ft 220kts
04-Oct-20 14:59 33.376793 -112.681165 287 2802ft 194kts
04-Oct-20 15:00 33.415890 -112.708836 1 1648ft 160kts
04-Oct-20 15:01 33.454610 -112.709738 3 1492ft 117kts
04-Oct-20 15:02 33.455042 -112.686740 170 1967ft 110kts
04-Oct-20 15:03 33.428573 -112.686013 175 1048ft 84kts
04-Oct-20 15:04 33.417792 -112.685841 148 1036ft 8kts
04-Oct-20 15:05 33.420517 -112.684960 3 1036ft 15kts
04-Oct-20 15:06 33.420576 -112.683741 95 1036ft 0kts
04-Oct-20 15:07 33.420576 -112.683735 95 1036ft 0kts
04-Oct-20 15:08 33.420575 -112.683728 95 1036ft 0kts
04-Oct-20 15:09 33.420575 -112.683723 95 1036ft 0kts
04-Oct-20 15:10 33.420575 -112.683722 95 1037ft 0kts
04-Oct-20 15:11 33.420575 -112.683722 95 1037ft 0kts
04-Oct-20 15:12 33.420575 -112.683722 95 1037ft 0kts
04-Oct-20 15:13 33.420575 -112.683722 95 1037ft 0kts
04-Oct-20 15:14 33.420575 -112.683722 95 1037ft 0kts
04-Oct-20 15:15 33.420575 -112.683722 95 1037ft 0kts
04-Oct-20 15:15 33.420575 -112.683722 95 1037ft 0kts
04-Oct-20 15:16 33.420575 -112.683722 95 1037ft 0kts
04-Oct-20 15:18 33.420575 -112.683722 95 1037ft 0kts

Navigation Log

Ident Type
Flight plan parsing failed, navigation log unavailable